createdAt,value
2019-02-03T00:00:32.804Z,90.84
2019-02-03T00:01:33.443Z,90.82
2019-02-03T00:02:32.657Z,90.76
2019-02-03T00:03:32.898Z,90.73
2019-02-03T00:04:32.863Z,90.62
2019-02-03T00:05:32.646Z,90.71
2019-02-03T00:06:33.449Z,90.64
2019-02-03T00:07:32.938Z,90.47
2019-02-03T00:08:32.633Z,90.46
2019-02-03T00:09:32.510Z,90.42
2019-02-03T00:10:32.533Z,90.41
2019-02-03T00:11:32.706Z,90.43
2019-02-03T00:12:32.951Z,90.55
2019-02-03T00:13:32.774Z,90.52
2019-02-03T00:14:32.684Z,90.37
2019-02-03T00:15:32.531Z,90.29
2019-02-03T00:16:32.538Z,90.28
2019-02-03T00:17:32.492Z,90.1
2019-02-03T00:18:34.855Z,90.2
2019-02-03T00:19:32.894Z,90.13
2019-02-03T00:20:32.742Z,90.11
2019-02-03T00:21:32.545Z,90.21
2019-02-03T00:22:32.488Z,90.33
2019-02-03T00:23:33.570Z,90.2
2019-02-03T00:24:32.500Z,90.24
2019-02-03T00:25:32.588Z,90.1
2019-02-03T00:26:32.533Z,90.13
2019-02-03T00:27:32.537Z,90.09
2019-02-03T00:28:32.494Z,90.09
2019-02-03T00:29:32.617Z,90.12
2019-02-03T00:30:33.200Z,90.22
2019-02-03T00:31:33.936Z,90.27
2019-02-03T00:32:32.508Z,90.27
2019-02-03T00:33:32.641Z,90.12
2019-02-03T00:34:32.631Z,90.03
2019-02-03T00:35:33.490Z,90.04
2019-02-03T00:36:32.448Z,90.05
2019-02-03T00:37:32.801Z,90.15
2019-02-03T00:38:32.695Z,90.23
2019-02-03T00:39:33.445Z,90.13
2019-02-03T00:40:32.906Z,90.14
2019-02-03T00:41:32.943Z,90.09
2019-02-03T00:42:32.543Z,90.03
2019-02-03T00:43:32.587Z,90.16
2019-02-03T00:44:32.575Z,90.08
2019-02-03T00:45:32.887Z,90.14
2019-02-03T00:46:32.965Z,90.2
2019-02-03T00:47:32.612Z,90.19
2019-02-03T00:48:32.791Z,90.25
2019-02-03T00:49:32.476Z,90.12
2019-02-03T00:50:32.741Z,90.23
2019-02-03T00:51:32.540Z,90.09
2019-02-03T00:52:32.612Z,90.1
2019-02-03T00:53:32.454Z,90.04
2019-02-03T00:54:32.741Z,90.12
2019-02-03T00:55:32.849Z,90.03
2019-02-03T00:56:32.634Z,90.03
2019-02-03T00:57:32.704Z,90.07
2019-02-03T00:58:33.277Z,90.02
2019-02-03T00:59:32.414Z,89.86
2019-02-03T01:00:32.800Z,90.01
2019-02-03T01:01:32.711Z,89.97
2019-02-03T01:02:32.898Z,89.7
2019-02-03T01:03:34.243Z,89.76
2019-02-03T01:04:33.545Z,89.72
2019-02-03T01:05:32.567Z,89.63
2019-02-03T01:06:32.554Z,89.74
2019-02-03T01:07:32.401Z,89.79
2019-02-03T01:08:32.413Z,89.81
2019-02-03T01:09:34.166Z,89.73
2019-02-03T01:10:32.601Z,89.78
2019-02-03T01:11:32.456Z,89.55
2019-02-03T01:12:33.606Z,89.51
2019-02-03T01:13:32.872Z,89.6
2019-02-03T01:14:32.378Z,89.55
2019-02-03T01:15:32.811Z,89.65
2019-02-03T01:16:32.744Z,89.65
2019-02-03T01:17:32.426Z,89.58
2019-02-03T01:18:32.691Z,89.71
2019-02-03T01:19:32.498Z,89.69
2019-02-03T01:20:33.861Z,89.66
2019-02-03T01:21:34.237Z,89.57
2019-02-03T01:22:32.583Z,89.45
2019-02-03T01:23:32.771Z,89.52
2019-02-03T01:24:32.458Z,89.58
2019-02-03T01:25:32.629Z,89.57
2019-02-03T01:26:32.363Z,89.37
2019-02-03T01:27:32.550Z,89.46
2019-02-03T01:28:33.609Z,89.32
2019-02-03T01:29:32.987Z,89.25
2019-02-03T01:30:32.594Z,89.28
2019-02-03T01:31:32.518Z,89.27
2019-02-03T01:32:32.395Z,89.25
2019-02-03T01:33:32.516Z,89.32
2019-02-03T01:34:32.717Z,89.4
2019-02-03T01:35:32.433Z,89.32
2019-02-03T01:36:33.458Z,89.3
2019-02-03T01:37:42.509Z,89.28
2019-02-03T01:38:32.375Z,89.37
2019-02-03T01:39:33.047Z,89.18
2019-02-03T01:40:32.567Z,89.2
2019-02-03T01:41:32.451Z,89.17
2019-02-03T01:42:32.488Z,89.07
2019-02-03T01:43:32.369Z,89.07
2019-02-03T01:44:33.590Z,89.18
2019-02-03T01:45:32.475Z,89.22
2019-02-03T01:46:32.380Z,89.36
2019-02-03T01:47:32.386Z,89.17
2019-02-03T01:48:32.428Z,89.14
2019-02-03T01:49:32.603Z,89.27
2019-02-03T01:50:32.431Z,89.45
2019-02-03T01:51:32.381Z,89.26
2019-02-03T01:52:33.159Z,89.29
2019-02-03T01:53:32.552Z,89.48
2019-02-03T01:54:32.397Z,89.49
2019-02-03T01:55:32.347Z,89.45
2019-02-03T01:56:32.380Z,89.48
2019-02-03T01:57:32.350Z,89.6
2019-02-03T01:58:32.305Z,89.62
2019-02-03T01:59:32.347Z,89.78
2019-02-03T02:00:32.349Z,89.86
2019-02-03T02:01:32.661Z,89.94
2019-02-03T02:02:32.321Z,89.64
2019-02-03T02:03:32.317Z,89.62
2019-02-03T02:04:32.377Z,89.66
2019-02-03T02:05:32.325Z,89.68
2019-02-03T02:06:32.358Z,89.57
2019-02-03T02:07:32.332Z,89.65
2019-02-03T02:08:32.325Z,89.6
2019-02-03T02:09:32.334Z,89.54
2019-02-03T02:10:32.328Z,89.6
2019-02-03T02:11:32.778Z,89.42
2019-02-03T02:12:32.401Z,89.28
2019-02-03T02:13:32.417Z,89.29
2019-02-03T02:14:32.531Z,89.49
2019-02-03T02:15:32.344Z,89.52
2019-02-03T02:16:32.353Z,89.54
2019-02-03T02:17:35.073Z,89.51
2019-02-03T02:18:32.589Z,89.45
2019-02-03T02:19:32.300Z,89.41
2019-02-03T02:20:32.617Z,89.43
2019-02-03T02:21:32.338Z,89.49
2019-02-03T02:22:32.637Z,89.36
2019-02-03T02:23:32.359Z,89.48
2019-02-03T02:24:33.785Z,89.51
2019-02-03T02:25:32.404Z,89.48
2019-02-03T02:26:33.067Z,89.39
2019-02-03T02:27:32.315Z,89.34
2019-02-03T02:28:32.280Z,89.41
2019-02-03T02:29:32.464Z,89.43
2019-02-03T02:30:32.618Z,89.29
2019-02-03T02:31:32.334Z,89.28
2019-02-03T02:32:34.126Z,89.2
2019-02-03T02:33:32.269Z,89.36
2019-02-03T02:34:32.618Z,89.18
2019-02-03T02:35:32.334Z,89.23
2019-02-03T02:36:32.685Z,89.4
2019-02-03T02:37:32.264Z,89.28
2019-02-03T02:38:32.229Z,89.22
2019-02-03T02:39:35.587Z,89.14
2019-02-03T02:40:32.389Z,88.99
2019-02-03T02:41:32.584Z,89.04
2019-02-03T02:42:32.316Z,88.92
2019-02-03T02:43:32.292Z,88.95
2019-02-03T02:44:32.400Z,88.9
2019-02-03T02:45:32.296Z,89.03
2019-02-03T02:46:32.593Z,89.05
2019-02-03T02:47:32.326Z,89.06
2019-02-03T02:48:32.353Z,88.75
2019-02-03T02:49:32.466Z,88.88
2019-02-03T02:50:32.280Z,88.98
2019-02-03T02:51:34.054Z,88.81
2019-02-03T02:52:32.369Z,88.63
2019-02-03T02:53:34.062Z,88.64
2019-02-03T02:54:32.353Z,88.65
2019-02-03T02:55:32.495Z,88.76
2019-02-03T02:56:32.755Z,88.71
2019-02-03T02:57:33.509Z,88.58
2019-02-03T02:58:32.274Z,88.58
2019-02-03T02:59:32.250Z,88.56
2019-02-03T03:00:34.056Z,88.67
2019-02-03T03:01:32.503Z,88.63
2019-02-03T03:02:32.262Z,88.71
2019-02-03T03:03:32.513Z,88.74
2019-02-03T03:04:32.296Z,88.67
2019-02-03T03:05:32.424Z,88.51
2019-02-03T03:06:32.546Z,88.49
2019-02-03T03:07:32.295Z,88.48
2019-02-03T03:08:32.241Z,88.3
2019-02-03T03:09:32.564Z,88.47
2019-02-03T03:10:32.551Z,88.38
2019-02-03T03:11:32.423Z,88.36
2019-02-03T03:12:32.694Z,88.44
2019-02-03T03:13:33.418Z,88.39
2019-02-03T03:14:32.235Z,88.44
2019-02-03T03:15:32.405Z,88.54
2019-02-03T03:16:32.454Z,88.56
2019-02-03T03:17:32.331Z,88.41
2019-02-03T03:18:32.283Z,88.3
2019-02-03T03:19:32.221Z,88.42
2019-02-03T03:20:32.310Z,88.39
2019-02-03T03:21:33.881Z,88.56
2019-02-03T03:22:32.234Z,88.33
2019-02-03T03:23:32.468Z,88.35
2019-02-03T03:24:32.332Z,88.3
2019-02-03T03:25:32.186Z,88.29
2019-02-03T03:26:32.230Z,88.47
2019-02-03T03:27:32.790Z,88.2
2019-02-03T03:28:32.251Z,88.22
2019-02-03T03:29:35.113Z,88.1
2019-02-03T03:30:32.390Z,88.08
2019-02-03T03:31:32.485Z,87.97
2019-02-03T03:32:32.334Z,88.04
2019-02-03T03:33:32.273Z,87.98
2019-02-03T03:34:32.201Z,88.03
2019-02-03T03:35:35.034Z,88.14
2019-02-03T03:36:32.202Z,88.29
2019-02-03T03:37:33.481Z,88.15
2019-02-03T03:38:32.872Z,88.58
2019-02-03T03:39:32.359Z,88.44
2019-02-03T03:40:32.171Z,88.56
2019-02-03T03:41:32.196Z,88.47
2019-02-03T03:42:32.256Z,88.46
2019-02-03T03:43:32.257Z,88.84
2019-02-03T03:44:32.250Z,88.64
2019-02-03T03:45:33.332Z,88.69
2019-02-03T03:46:32.518Z,88.88
2019-02-03T03:47:32.261Z,88.78
2019-02-03T03:48:32.234Z,88.76
2019-02-03T03:49:32.259Z,88.97
2019-02-03T03:50:32.184Z,88.87
2019-02-03T03:51:32.225Z,89
2019-02-03T03:52:32.154Z,89.01
2019-02-03T03:53:33.280Z,88.76
2019-02-03T03:54:32.568Z,88.66
2019-02-03T03:55:32.158Z,88.76
2019-02-03T03:56:32.319Z,88.71
2019-02-03T03:57:32.224Z,89.02
2019-02-03T03:58:32.132Z,88.95
2019-02-03T03:59:32.320Z,88.95
2019-02-03T04:00:32.294Z,88.91
2019-02-03T04:01:32.723Z,89.04
2019-02-03T04:02:32.288Z,88.92
2019-02-03T04:03:32.281Z,88.82
2019-02-03T04:04:32.628Z,88.67
2019-02-03T04:05:32.164Z,88.62
2019-02-03T04:06:32.308Z,88.51
2019-02-03T04:07:32.249Z,88.41
2019-02-03T04:08:45.957Z,88.22
2019-02-03T04:09:32.858Z,88.39
2019-02-03T04:10:32.120Z,88.44
2019-02-03T04:11:32.186Z,88.17
2019-02-03T04:12:32.202Z,88.14
2019-02-03T04:13:32.805Z,87.92
2019-02-03T04:14:32.241Z,88.02
2019-02-03T04:15:32.404Z,87.84
2019-02-03T04:16:32.498Z,87.77
2019-02-03T04:17:32.178Z,87.82
2019-02-03T04:18:32.235Z,87.55
2019-02-03T04:19:32.558Z,87.47
2019-02-03T04:20:32.754Z,87.56
2019-02-03T04:21:32.853Z,87.25
2019-02-03T04:22:32.162Z,87.33
2019-02-03T04:23:32.117Z,87.12
2019-02-03T04:24:32.143Z,87.3
2019-02-03T04:25:32.185Z,86.94
2019-02-03T04:26:32.155Z,87.01
2019-02-03T04:27:32.370Z,87.02
2019-02-03T04:28:32.119Z,86.67
2019-02-03T04:29:32.438Z,86.66
2019-02-03T04:30:32.378Z,86.77
2019-02-03T04:31:32.155Z,86.43
2019-02-03T04:32:32.453Z,86.34
2019-02-03T04:33:32.115Z,86.53
2019-02-03T04:34:32.122Z,86.47
2019-02-03T04:35:32.523Z,86
2019-02-03T04:36:32.317Z,85.99
2019-02-03T04:37:32.361Z,85.96
2019-02-03T04:38:32.126Z,85.76
2019-02-03T04:39:32.344Z,85.75
2019-02-03T04:40:32.178Z,85.53
2019-02-03T04:41:32.136Z,85.42
2019-02-03T04:42:33.209Z,85.7
2019-02-03T04:43:32.374Z,85.71
2019-02-03T04:44:32.376Z,85.74
2019-02-03T04:45:32.075Z,85.22
2019-02-03T04:46:32.715Z,85.1
2019-02-03T04:47:32.228Z,84.77
2019-02-03T04:48:32.934Z,84.91
2019-02-03T04:49:32.448Z,84.62
2019-02-03T04:50:36.134Z,84.72
2019-02-03T04:51:32.157Z,84.23
2019-02-03T04:52:32.079Z,84.5
2019-02-03T04:53:32.383Z,83.92
2019-02-03T04:54:32.473Z,83.78
2019-02-03T04:55:33.380Z,83.64
2019-02-03T04:56:33.869Z,83.39
2019-02-03T04:57:32.263Z,83.59
2019-02-03T04:58:32.708Z,82.89
2019-02-03T04:59:32.265Z,83.05
2019-02-03T05:00:32.426Z,83.31
2019-02-03T05:01:32.286Z,83.15
2019-02-03T05:02:32.511Z,82.86
2019-02-03T05:03:32.109Z,82.95
2019-02-03T05:04:32.049Z,83.09
2019-02-03T05:05:32.070Z,82.78
2019-02-03T05:06:33.177Z,82.89
2019-02-03T05:07:32.128Z,82.94
2019-02-03T05:08:32.057Z,83.04
2019-02-03T05:09:32.473Z,83.11
2019-02-03T05:10:32.073Z,82.81
2019-02-03T05:11:32.050Z,82.94
2019-02-03T05:12:32.128Z,82.95
2019-02-03T05:13:32.518Z,82.86
2019-02-03T05:14:33.433Z,82.87
2019-02-03T05:15:32.093Z,82.59
2019-02-03T05:16:32.116Z,82.62
2019-02-03T05:17:32.038Z,82.83
2019-02-03T05:18:32.241Z,82.88
2019-02-03T05:19:32.166Z,82.65
2019-02-03T05:20:32.343Z,82.48
2019-02-03T05:21:32.228Z,82.73
2019-02-03T05:22:33.179Z,82.89
2019-02-03T05:23:32.059Z,82.78
2019-02-03T05:24:32.351Z,82.63
2019-02-03T05:25:32.372Z,82.44
2019-02-03T05:26:32.110Z,82.66
2019-02-03T05:27:32.184Z,82.42
2019-02-03T05:28:32.020Z,82.62
2019-02-03T05:29:32.091Z,82.63
2019-02-03T05:30:33.234Z,82.43
2019-02-03T05:31:32.109Z,82.32
2019-02-03T05:32:32.157Z,82.16
2019-02-03T05:33:32.142Z,81.7
2019-02-03T05:34:32.319Z,81.89
2019-02-03T05:35:32.228Z,81.72
2019-02-03T05:36:32.088Z,82.01
2019-02-03T05:37:32.214Z,82.01
2019-02-03T05:38:33.188Z,82.05
2019-02-03T05:39:32.283Z,81.98
2019-02-03T05:40:32.131Z,81.66
2019-02-03T05:41:32.172Z,81.51
2019-02-03T05:42:32.059Z,81.56
2019-02-03T05:43:33.826Z,81.38
2019-02-03T05:44:32.123Z,81.06
2019-02-03T05:45:32.201Z,81.25
2019-02-03T05:46:33.139Z,81.08
2019-02-03T05:47:32.421Z,80.84
2019-02-03T05:48:32.109Z,80.85
2019-02-03T05:49:32.116Z,80.95
2019-02-03T05:50:32.424Z,80.69
2019-02-03T05:51:32.755Z,80.62
2019-02-03T05:52:32.140Z,80.83
2019-02-03T05:53:32.113Z,80.68
2019-02-03T05:54:32.992Z,80.63
2019-02-03T05:55:32.281Z,80.5
2019-02-03T05:56:32.621Z,80.06
2019-02-03T05:57:32.204Z,80.27
2019-02-03T05:58:31.993Z,80.18
2019-02-03T05:59:31.948Z,79.67
2019-02-03T06:00:32.214Z,79.4
2019-02-03T06:01:32.759Z,79.33
2019-02-03T06:02:33.147Z,79.4
2019-02-03T06:03:32.239Z,79.46
2019-02-03T06:04:32.064Z,79.39
2019-02-03T06:05:32.113Z,79.35
2019-02-03T06:06:31.957Z,79.77
2019-02-03T06:07:32.513Z,79.84
2019-02-03T06:08:32.464Z,79.59
2019-02-03T06:09:37.330Z,79.61
2019-02-03T06:10:33.103Z,79.48
2019-02-03T06:11:32.050Z,79.23
2019-02-03T06:12:32.275Z,79.28
2019-02-03T06:13:32.105Z,79.61
2019-02-03T06:14:32.380Z,78.99
2019-02-03T06:15:32.315Z,79.05
2019-02-03T06:16:32.017Z,79.02
2019-02-03T06:17:31.984Z,79
2019-02-03T06:18:33.466Z,79.2
2019-02-03T06:19:32.571Z,78.89
2019-02-03T06:20:32.561Z,78.81
2019-02-03T06:21:32.060Z,78.77
2019-02-03T06:22:32.474Z,79
2019-02-03T06:23:32.342Z,78.7
2019-02-03T06:24:32.440Z,78.66
2019-02-03T06:25:32.479Z,79.11
2019-02-03T06:26:33.110Z,79.28
2019-02-03T06:27:32.677Z,79.2
2019-02-03T06:28:32.205Z,78.97
2019-02-03T06:29:32.200Z,78.45
2019-02-03T06:30:32.632Z,78.73
2019-02-03T06:31:33.803Z,78.63
2019-02-03T06:32:32.019Z,78.48
2019-02-03T06:33:32.536Z,78.48
2019-02-03T06:34:32.283Z,78.59
2019-02-03T06:35:32.054Z,78.62
2019-02-03T06:36:32.231Z,78.62
2019-02-03T06:37:32.074Z,78.58
2019-02-03T06:38:32.389Z,78.74
2019-02-03T06:39:32.070Z,78.6
2019-02-03T06:40:32.040Z,78.66
2019-02-03T06:41:32.179Z,78.33
2019-02-03T06:42:32.203Z,78.52
2019-02-03T06:43:34.863Z,78.33
2019-02-03T06:44:31.921Z,78.32
2019-02-03T06:45:33.820Z,78.52
2019-02-03T06:46:32.119Z,78.42
2019-02-03T06:47:32.334Z,78.36
2019-02-03T06:48:32.158Z,78.41
2019-02-03T06:49:32.442Z,78.32
2019-02-03T06:50:32.282Z,78
2019-02-03T06:51:33.684Z,77.94
2019-02-03T06:52:32.027Z,78.18
2019-02-03T06:53:32.249Z,78.03
2019-02-03T06:54:32.321Z,77.9
2019-02-03T06:55:32.085Z,77.64
2019-02-03T06:56:31.936Z,77.66
2019-02-03T06:57:32.252Z,77.89
2019-02-03T06:58:32.410Z,78
2019-02-03T06:59:33.649Z,77.89
2019-02-03T07:00:32.280Z,77.86
2019-02-03T07:01:32.076Z,77.86
2019-02-03T07:02:32.152Z,78.03
2019-02-03T07:03:32.121Z,78.01
2019-02-03T07:04:32.145Z,77.92
2019-02-03T07:05:31.946Z,77.89
2019-02-03T07:06:32.426Z,77.89
2019-02-03T07:07:33.358Z,77.9
2019-02-03T07:08:32.025Z,77.67
2019-02-03T07:09:32.035Z,77.96
2019-02-03T07:10:31.896Z,77.61
2019-02-03T07:11:31.924Z,77.58
2019-02-03T07:12:32.081Z,77.96
2019-02-03T07:13:31.927Z,77.91
2019-02-03T07:14:31.855Z,78.05
2019-02-03T07:15:32.525Z,77.97
2019-02-03T07:16:45.142Z,77.55
2019-02-03T07:17:32.209Z,77.3
2019-02-03T07:18:31.979Z,77.23
2019-02-03T07:19:32.324Z,77.43
2019-02-03T07:20:32.057Z,77.07
2019-02-03T07:21:32.142Z,76.67
2019-02-03T07:22:32.336Z,76.77
2019-02-03T07:23:33.500Z,76.73
2019-02-03T07:24:31.982Z,76.74
2019-02-03T07:25:32.039Z,76.53
2019-02-03T07:26:31.861Z,76
2019-02-03T07:27:31.905Z,76.3
2019-02-03T07:28:32.075Z,76.3
2019-02-03T07:29:32.415Z,76.1
2019-02-03T07:30:31.973Z,76.63
2019-02-03T07:31:32.842Z,76.03
2019-02-03T07:32:32.079Z,75.36
2019-02-03T07:33:31.778Z,75.96
2019-02-03T07:34:32.404Z,75.83
2019-02-03T07:35:31.817Z,75.57
2019-02-03T07:36:32.228Z,75.44
2019-02-03T07:37:31.954Z,74.97
2019-02-03T07:38:32.149Z,75.04
2019-02-03T07:39:33.306Z,75.04
2019-02-03T07:40:32.015Z,74.92
2019-02-03T07:41:31.793Z,75.04
2019-02-03T07:42:32.084Z,75.24
2019-02-03T07:43:32.072Z,74.96
2019-02-03T07:44:33.120Z,74.97
2019-02-03T07:45:31.906Z,74.79
2019-02-03T07:46:32.306Z,74.89
2019-02-03T07:47:33.458Z,74.84
2019-02-03T07:48:34.061Z,75.02
2019-02-03T07:49:32.354Z,74.84
2019-02-03T07:50:32.211Z,75.05
2019-02-03T07:51:32.222Z,75.29
2019-02-03T07:52:31.820Z,75
2019-02-03T07:53:32.151Z,75.19
2019-02-03T07:54:31.961Z,74.39
2019-02-03T07:55:32.898Z,74.89
2019-02-03T07:56:31.761Z,74.76
2019-02-03T07:57:32.115Z,74.36
2019-02-03T07:58:31.824Z,74.59
2019-02-03T07:59:32.366Z,74.19
2019-02-03T08:00:31.992Z,74.49
2019-02-03T08:01:31.893Z,74.44
2019-02-03T08:02:32.701Z,74.71
2019-02-03T08:03:32.650Z,74.49
2019-02-03T08:04:32.432Z,74.87
2019-02-03T08:05:32.432Z,74.8
2019-02-03T08:06:32.125Z,74.27
2019-02-03T08:07:32.000Z,74.64
2019-02-03T08:08:31.864Z,74.07
2019-02-03T08:09:32.559Z,74.49
2019-02-03T08:10:31.868Z,74.18
2019-02-03T08:11:32.905Z,74.65
2019-02-03T08:12:32.086Z,74.46
2019-02-03T08:13:32.084Z,74.72
2019-02-03T08:14:32.198Z,74.74
2019-02-03T08:15:33.484Z,74.65
2019-02-03T08:16:32.176Z,74.87
2019-02-03T08:17:31.743Z,74.86
2019-02-03T08:18:32.014Z,74.44
2019-02-03T08:19:33.272Z,74.75
2019-02-03T08:20:31.716Z,74.97
2019-02-03T08:21:32.154Z,75.09
2019-02-03T08:22:31.800Z,75.28
2019-02-03T08:23:31.941Z,75.21
2019-02-03T08:24:31.815Z,74.96
2019-02-03T08:25:31.713Z,74.81
2019-02-03T08:26:31.820Z,75.14
2019-02-03T08:27:31.786Z,75.22
2019-02-03T08:28:32.695Z,75.27
2019-02-03T08:29:31.936Z,75.25
2019-02-03T08:30:31.739Z,75.58
2019-02-03T08:31:31.741Z,75.96
2019-02-03T08:32:31.963Z,75.74
2019-02-03T08:33:33.562Z,76.16
2019-02-03T08:34:31.764Z,76.08
2019-02-03T08:35:34.130Z,76.36
2019-02-03T08:36:32.599Z,76.38
2019-02-03T08:37:31.747Z,76.54
2019-02-03T08:38:31.823Z,76.68
2019-02-03T08:39:31.979Z,76.68
2019-02-03T08:40:37.926Z,76.8
2019-02-03T08:41:31.719Z,77.07
2019-02-03T08:42:35.790Z,76.73
2019-02-03T08:43:31.991Z,76.9
2019-02-03T08:44:32.141Z,76.92
2019-02-03T08:45:32.061Z,77.11
2019-02-03T08:46:31.721Z,77.29
2019-02-03T08:47:32.319Z,77.5
2019-02-03T08:48:31.747Z,77.29
2019-02-03T08:49:32.297Z,77.35
2019-02-03T08:50:32.661Z,77.46
2019-02-03T08:51:32.667Z,77.59
2019-02-03T08:52:32.092Z,77.69
2019-02-03T08:53:31.718Z,77.81
2019-02-03T08:54:31.715Z,77.85
2019-02-03T08:55:31.712Z,77.98
2019-02-03T08:56:31.814Z,78
2019-02-03T08:57:39.275Z,78.03
2019-02-03T08:58:32.972Z,78.25
2019-02-03T08:59:35.898Z,78.28
2019-02-03T09:00:31.931Z,78.32
2019-02-03T09:01:31.760Z,78.32
2019-02-03T09:02:32.869Z,78.32
2019-02-03T09:03:31.945Z,78.18
2019-02-03T09:04:31.702Z,78.27
2019-02-03T09:05:31.806Z,78.47
2019-02-03T09:06:31.756Z,78.54
2019-02-03T09:07:32.780Z,78.29
2019-02-03T09:08:32.254Z,78.34
2019-02-03T09:09:31.705Z,78.33
2019-02-03T09:10:31.747Z,78.56
2019-02-03T09:11:31.783Z,78.5
2019-02-03T09:12:33.410Z,78.18
2019-02-03T09:13:32.307Z,78.23
2019-02-03T09:14:31.684Z,78.18
2019-02-03T09:15:32.061Z,77.87
2019-02-03T09:16:32.063Z,77.9
2019-02-03T09:17:32.129Z,77.77
2019-02-03T09:18:31.661Z,77.9
2019-02-03T09:19:31.942Z,77.73
2019-02-03T09:20:31.747Z,78.16
2019-02-03T09:21:31.750Z,77.85
2019-02-03T09:22:31.812Z,77.83
2019-02-03T09:23:31.712Z,77.54
2019-02-03T09:24:31.778Z,77.71
2019-02-03T09:25:31.636Z,77.72
2019-02-03T09:26:32.659Z,77.45
2019-02-03T09:27:32.184Z,77.07
2019-02-03T09:28:31.788Z,77.52
2019-02-03T09:29:33.201Z,77.91
2019-02-03T09:30:32.259Z,77.44
2019-02-03T09:31:32.439Z,76.73
2019-02-03T09:32:33.759Z,76.71
2019-02-03T09:33:31.995Z,77.05
2019-02-03T09:34:32.260Z,76.9
2019-02-03T09:35:32.462Z,77.11
2019-02-03T09:36:31.628Z,77.19
2019-02-03T09:37:31.653Z,76.63
2019-02-03T09:38:31.783Z,76.93
2019-02-03T09:39:31.780Z,76.97
2019-02-03T09:40:31.799Z,77.13
2019-02-03T09:41:31.917Z,77.23
2019-02-03T09:42:32.094Z,76.68
2019-02-03T09:43:31.892Z,77
2019-02-03T09:45:32.063Z,76.67
2019-02-03T09:46:35.017Z,76.89
2019-02-03T09:47:31.675Z,77.04
2019-02-03T09:48:31.623Z,76.98
2019-02-03T09:49:31.612Z,76.97
2019-02-03T09:50:32.069Z,76.67
2019-02-03T09:51:31.856Z,76.71
2019-02-03T09:52:31.955Z,76.93
2019-02-03T09:53:31.946Z,76.7
2019-02-03T09:54:31.693Z,76.36
2019-02-03T09:55:32.028Z,76.36
2019-02-03T09:56:31.798Z,76.62
2019-02-03T09:57:31.647Z,76.63
2019-02-03T09:58:32.598Z,76.74
2019-02-03T09:59:31.665Z,76.58
2019-02-03T10:00:31.941Z,76.74
2019-02-03T10:01:33.694Z,76.79
2019-02-03T10:02:32.551Z,76.84
2019-02-03T10:03:31.615Z,76.62
2019-02-03T10:04:31.572Z,76.54
2019-02-03T10:05:31.668Z,76.74
2019-02-03T10:06:31.713Z,76.79
2019-02-03T10:07:32.251Z,76.42
2019-02-03T10:08:41.213Z,76.48
2019-02-03T10:09:33.564Z,76.65
2019-02-03T10:10:32.555Z,76.59
2019-02-03T10:11:32.101Z,76.95
2019-02-03T10:12:31.617Z,76.79
2019-02-03T10:13:32.984Z,76.69
2019-02-03T10:14:34.145Z,76.03
2019-02-03T10:15:32.643Z,76.02
2019-02-03T10:16:31.729Z,76.09
2019-02-03T10:17:32.013Z,75.92
2019-02-03T10:18:32.222Z,75.9
2019-02-03T10:19:31.583Z,76.34
2019-02-03T10:20:31.552Z,75.75
2019-02-03T10:21:32.351Z,75.38
2019-02-03T10:22:31.566Z,75.19
2019-02-03T10:23:31.850Z,74.99
2019-02-03T10:24:42.723Z,75.4
2019-02-03T10:25:31.617Z,75.35
2019-02-03T10:26:31.615Z,74.65
2019-02-03T10:27:31.565Z,74.57
2019-02-03T10:28:31.847Z,74.94
2019-02-03T10:29:31.646Z,74.7
2019-02-03T10:30:31.530Z,74.85
2019-02-03T10:31:31.806Z,74.76
2019-02-03T10:32:31.568Z,74.84
2019-02-03T10:33:31.657Z,74.88
2019-02-03T10:34:31.676Z,74.95
2019-02-03T10:35:31.554Z,74.61
2019-02-03T10:36:31.731Z,74.14
2019-02-03T10:37:31.625Z,74.38
2019-02-03T10:38:31.550Z,74.35
2019-02-03T10:39:33.343Z,74.16
2019-02-03T10:40:31.978Z,74.3
2019-02-03T10:41:31.644Z,74.13
2019-02-03T10:42:31.762Z,74.26
2019-02-03T10:43:31.780Z,74.29
2019-02-03T10:44:31.586Z,74.35
2019-02-03T10:45:33.368Z,74.61
2019-02-03T10:46:31.751Z,74.15
2019-02-03T10:47:31.551Z,74.2
2019-02-03T10:48:31.751Z,74.09
2019-02-03T10:49:31.770Z,73.8
2019-02-03T10:50:32.946Z,74.08
2019-02-03T10:51:31.632Z,74.04
2019-02-03T10:52:31.553Z,73.77
2019-02-03T10:53:31.523Z,73.88
2019-02-03T10:54:31.866Z,74.04
2019-02-03T10:55:31.503Z,74.23
2019-02-03T10:56:31.648Z,73.65
2019-02-03T10:57:31.507Z,74.05
2019-02-03T10:58:32.592Z,74.09
2019-02-03T10:59:31.703Z,74.33
2019-02-03T11:00:31.655Z,74.04
2019-02-03T11:01:31.732Z,74.22
2019-02-03T11:02:31.809Z,74.67
2019-02-03T11:03:31.656Z,74.67
2019-02-03T11:04:31.625Z,74.65
2019-02-03T11:05:31.582Z,74.35
2019-02-03T11:06:31.633Z,73.81
2019-02-03T11:07:31.660Z,73.73
2019-02-03T11:08:32.189Z,73.49
2019-02-03T11:09:31.849Z,73.25
2019-02-03T11:10:32.191Z,73.23
2019-02-03T11:11:37.188Z,73.25
2019-02-03T11:12:31.702Z,73.41
2019-02-03T11:13:32.488Z,73.27
2019-02-03T11:14:31.527Z,73.16
2019-02-03T11:15:31.685Z,72.83
2019-02-03T11:16:31.495Z,73
2019-02-03T11:17:32.374Z,73.05
2019-02-03T11:18:31.489Z,72.9
2019-02-03T11:19:31.642Z,72.81
2019-02-03T11:20:31.581Z,72.68
2019-02-03T11:21:33.449Z,72.72
2019-02-03T11:22:31.549Z,72.88
2019-02-03T11:23:32.106Z,73.19
2019-02-03T11:24:31.627Z,73.34
2019-02-03T11:25:32.218Z,72.96
2019-02-03T11:26:31.668Z,72.62
2019-02-03T11:27:31.653Z,72.5
2019-02-03T11:28:32.390Z,72.16
2019-02-03T11:29:31.687Z,72.48
2019-02-03T11:30:31.814Z,72.79
2019-02-03T11:31:31.697Z,72.59
2019-02-03T11:32:31.635Z,72.63
2019-02-03T11:33:31.617Z,73
2019-02-03T11:34:31.666Z,72.96
2019-02-03T11:35:31.469Z,72.45
2019-02-03T11:36:33.057Z,72.64
2019-02-03T11:37:31.542Z,72.17
2019-02-03T11:38:32.006Z,72.51
2019-02-03T11:39:32.154Z,72.18
2019-02-03T11:40:31.571Z,72.38
2019-02-03T11:41:31.521Z,72.68
2019-02-03T11:42:31.808Z,72.49
2019-02-03T11:43:31.468Z,72.74
2019-02-03T11:44:31.728Z,72.88
2019-02-03T11:45:31.817Z,72.83
2019-02-03T11:46:31.591Z,73.14
2019-02-03T11:47:31.473Z,73.09
2019-02-03T11:48:31.551Z,73.13
2019-02-03T11:49:32.137Z,73.4
2019-02-03T11:50:32.152Z,72.92
2019-02-03T11:51:31.537Z,72.86
2019-02-03T11:52:31.521Z,73.09
2019-02-03T11:53:31.834Z,73.28
2019-02-03T11:54:31.734Z,73.44
2019-02-03T11:55:31.553Z,73.64
2019-02-03T11:56:31.452Z,73.55
2019-02-03T11:57:31.637Z,73.78
2019-02-03T11:58:31.455Z,73.98
2019-02-03T11:59:31.873Z,74
2019-02-03T12:00:32.021Z,73.93
2019-02-03T12:01:31.571Z,73.74
2019-02-03T12:02:42.554Z,73.58
2019-02-03T12:03:32.296Z,74.04
2019-02-03T12:04:31.585Z,74.27
2019-02-03T12:05:31.787Z,74.33
2019-02-03T12:06:32.115Z,73.84
2019-02-03T12:07:31.415Z,73.69
2019-02-03T12:08:32.457Z,73.08
2019-02-03T12:09:31.863Z,73.57
2019-02-03T12:10:31.744Z,73.44
2019-02-03T12:11:31.750Z,73.55
2019-02-03T12:12:31.740Z,73.04
2019-02-03T12:13:31.406Z,73.06
2019-02-03T12:14:31.433Z,73.09
2019-02-03T12:15:32.361Z,73.21
2019-02-03T12:16:32.511Z,73.2
2019-02-03T12:17:31.516Z,73.12
2019-02-03T12:18:32.519Z,72.83
2019-02-03T12:19:31.599Z,72.65
2019-02-03T12:20:31.735Z,72.75
2019-02-03T12:21:31.436Z,73.24
2019-02-03T12:22:31.376Z,73.2
2019-02-03T12:23:31.374Z,73.39
2019-02-03T12:24:32.258Z,73.36
2019-02-03T12:25:31.487Z,72.78
2019-02-03T12:26:31.395Z,72.99
2019-02-03T12:27:31.663Z,73.26
2019-02-03T12:28:31.415Z,73.59
2019-02-03T12:29:31.412Z,73.44
2019-02-03T12:30:31.420Z,72.85
2019-02-03T12:31:31.398Z,73.06
2019-02-03T12:32:31.524Z,73.5
2019-02-03T12:33:31.388Z,73.53
2019-02-03T12:34:31.375Z,73.72
2019-02-03T12:35:31.403Z,73.8
2019-02-03T12:36:31.387Z,73.78
2019-02-03T12:37:31.412Z,73.83
2019-02-03T12:38:31.390Z,74.06
2019-02-03T12:39:31.411Z,74.47
2019-02-03T12:40:31.604Z,74.47
2019-02-03T12:41:32.580Z,74.42
2019-02-03T12:42:31.425Z,74.41
2019-02-03T12:43:33.300Z,74.66
2019-02-03T12:44:32.388Z,74.34
2019-02-03T12:45:31.372Z,74.53
2019-02-03T12:46:31.593Z,74.66
2019-02-03T12:47:31.447Z,74.98
2019-02-03T12:48:31.423Z,74.96
2019-02-03T12:49:32.226Z,75.55
2019-02-03T12:50:31.914Z,75.9
2019-02-03T12:51:31.850Z,75.72
2019-02-03T12:52:31.533Z,76.19
2019-02-03T12:53:32.375Z,76.64
2019-02-03T12:54:31.492Z,76.18
2019-02-03T12:55:32.479Z,76.22
2019-02-03T12:56:31.628Z,75.97
2019-02-03T12:57:31.932Z,76.1